Medina, North Dakota
Current Conditions -  °F | °C
As of 7:56 PM on Wednesday 26 Nov 2014 (Local Time) from KJMS Reporting Station
Clear Clear  
Wind Chill: -32°   Ceiling: Unl
Heat Index: -19°   Visibility: 10mi
Dew Point: -21°   Wind: 5mph
Humidity: 91%   Direction: 320°NW
Pressure: 30.46"   Gusts: NA
Location:  46.89°N, 99.3°W
Report Text: KJMS 270156Z AUTO 32004KT 10SM CLR M28/M29 A3046 RMK AO2 SLP368 T12831294
Loading
Personal Weather Stations






























Interactive Weather Map New forecast layout! Learn more

10-Day Weather Forecast

Advertisements
Track Severe Weather on mobile